createdAt,value
2023-02-06T12:15:57.692Z,22.88
2023-02-06T12:16:58.626Z,22.86
2023-02-06T12:19:22.865Z,22.86
2023-02-06T12:20:26.456Z,22.94
2023-02-06T12:21:23.843Z,22.95
2023-02-06T12:22:23.817Z,23.12
2023-02-06T12:23:23.805Z,23.23
2023-02-06T12:24:23.805Z,23.35
2023-02-06T12:25:23.805Z,23.36
2023-02-06T12:26:23.770Z,23.46
2023-02-06T12:27:24.579Z,23.57
2023-02-06T12:28:23.782Z,23.63
2023-02-06T12:29:23.775Z,23.61
2023-02-06T12:30:23.753Z,23.68
2023-02-06T12:31:23.861Z,23.72
2023-02-06T12:32:23.706Z,23.79
2023-02-06T12:33:24.454Z,23.95
2023-02-06T12:34:23.721Z,24.03
2023-02-06T12:35:23.675Z,24.02
2023-02-06T12:36:23.671Z,24.10
2023-02-06T12:37:23.666Z,24.18
2023-02-06T12:38:23.666Z,24.24
2023-02-06T12:39:23.653Z,24.31
2023-02-06T12:40:23.648Z,24.28
2023-02-06T12:41:23.745Z,24.31
2023-02-06T12:42:23.606Z,24.34
2023-02-06T12:43:23.593Z,24.30
2023-02-06T12:44:23.585Z,24.27
2023-02-06T12:45:23.587Z,24.34
2023-02-06T12:46:23.628Z,24.35
2023-02-06T12:47:23.560Z,24.30
2023-02-06T12:48:23.599Z,24.30
2023-02-06T12:49:23.542Z,24.31
2023-02-06T12:50:23.581Z,24.32
2023-02-06T12:51:23.508Z,24.32
2023-02-06T12:52:23.491Z,24.39
2023-02-06T12:53:23.536Z,24.37
2023-02-06T12:54:23.487Z,24.35
2023-02-06T12:55:23.470Z,24.40
2023-02-06T12:56:23.469Z,24.43
2023-02-06T12:57:23.476Z,24.43
2023-02-06T12:58:23.530Z,24.42
2023-02-06T12:59:23.423Z,24.37
2023-02-06T13:00:23.404Z,24.30
2023-02-06T13:01:32.106Z,24.35
2023-02-06T13:02:23.451Z,24.42
2023-02-06T13:03:23.392Z,24.35
2023-02-06T13:04:23.370Z,24.30
2023-02-06T13:05:23.349Z,24.30
2023-02-06T13:06:23.361Z,24.35
2023-02-06T13:07:23.332Z,24.40
2023-02-06T13:08:25.228Z,24.37
2023-02-06T13:09:23.329Z,24.40
2023-02-06T13:10:23.337Z,24.39
2023-02-06T13:11:23.294Z,24.37
2023-02-06T13:12:23.288Z,24.42
2023-02-06T13:13:23.277Z,24.46
2023-02-06T13:14:23.276Z,24.47
2023-02-06T13:15:23.253Z,24.42
2023-02-06T13:16:23.291Z,24.42
2023-02-06T13:17:23.247Z,24.35
2023-02-06T13:18:23.230Z,24.35
2023-02-06T13:19:23.203Z,24.39
2023-02-06T13:20:23.247Z,24.32
2023-02-06T13:21:23.202Z,24.35
2023-02-06T13:22:23.180Z,24.34
2023-02-06T13:23:23.195Z,24.32
2023-02-06T13:24:23.176Z,24.27
2023-02-06T13:25:23.156Z,24.27
2023-02-06T13:26:23.147Z,24.24
2023-02-06T13:27:23.120Z,24.27
2023-02-06T13:28:23.329Z,24.30
2023-02-06T13:29:23.102Z,24.30
2023-02-06T13:30:23.156Z,24.34
2023-02-06T13:31:23.133Z,24.45
2023-02-06T13:32:23.089Z,24.45
2023-02-06T13:33:23.101Z,24.35
2023-02-06T13:34:23.063Z,24.32
2023-02-06T13:35:23.042Z,24.50
2023-02-06T13:36:23.052Z,24.71
2023-02-06T13:37:23.027Z,24.87
2023-02-06T13:38:23.105Z,24.99
2023-02-06T13:39:23.010Z,25.10
2023-02-06T13:40:23.004Z,25.20
2023-02-06T13:41:22.995Z,25.25
2023-02-06T13:42:22.991Z,25.30
2023-02-06T13:43:23.007Z,25.28
2023-02-06T13:44:22.947Z,25.33
2023-02-06T13:45:22.941Z,25.30
2023-02-06T13:46:22.946Z,25.25
2023-02-06T13:47:22.915Z,25.17
2023-02-06T13:48:22.948Z,25.06
2023-02-06T13:49:22.906Z,25.02
2023-02-06T13:50:22.890Z,24.85
2023-02-06T13:51:22.873Z,24.67
2023-02-06T13:52:22.862Z,24.50
2023-02-06T13:53:22.924Z,24.30
2023-02-06T13:54:22.854Z,24.03
2023-02-06T13:55:22.841Z,23.70
2023-02-06T13:56:22.824Z,23.36
2023-02-06T13:57:22.819Z,23.05
2023-02-06T13:58:22.809Z,22.77
2023-02-06T13:59:22.812Z,22.57
2023-02-06T14:00:22.786Z,22.39
2023-02-06T14:01:22.854Z,22.20
2023-02-06T14:02:22.915Z,22.05
2023-02-06T14:03:22.747Z,22.02
2023-02-06T14:04:24.860Z,21.96
2023-02-06T14:05:22.724Z,21.80
2023-02-06T14:06:22.729Z,21.71
2023-02-06T14:07:22.705Z,21.61
2023-02-06T14:08:22.712Z,21.52
2023-02-06T14:09:22.690Z,21.40
2023-02-06T14:10:22.680Z,21.31
2023-02-06T14:11:22.668Z,21.17
2023-02-06T14:12:22.650Z,21.07
2023-02-06T14:13:22.646Z,20.97
2023-02-06T14:14:22.666Z,20.87
2023-02-06T14:15:22.620Z,20.76
2023-02-06T14:16:22.706Z,20.69
2023-02-06T14:17:22.630Z,20.61
2023-02-06T14:18:22.585Z,20.58
2023-02-06T14:19:22.608Z,20.52
2023-02-06T14:20:22.560Z,20.48
2023-02-06T14:21:22.582Z,20.42
2023-02-06T14:22:22.544Z,20.38
2023-02-06T14:23:23.563Z,20.29
2023-02-06T14:24:22.532Z,20.23
2023-02-06T14:25:22.520Z,20.17
2023-02-06T14:26:22.509Z,20.11
2023-02-06T14:27:22.482Z,20.05
2023-02-06T14:28:22.552Z,20.01
2023-02-06T14:29:22.473Z,19.98
2023-02-06T14:30:22.492Z,19.94
2023-02-06T14:31:22.582Z,19.94
2023-02-06T14:32:22.444Z,19.87
2023-02-06T14:33:22.548Z,19.86
2023-02-06T14:34:22.430Z,19.83
2023-02-06T14:35:22.493Z,19.81
2023-02-06T14:36:22.400Z,19.81
2023-02-06T14:37:22.413Z,19.80
2023-02-06T14:38:22.421Z,19.83
2023-02-06T14:39:22.358Z,19.81
2023-02-06T14:40:22.376Z,19.80
2023-02-06T14:41:22.346Z,19.77
2023-02-06T14:42:22.332Z,19.77
2023-02-06T14:43:22.330Z,19.73
2023-02-06T14:44:22.345Z,19.74
2023-02-06T14:45:22.288Z,19.71
2023-02-06T14:46:22.337Z,19.73
2023-02-06T14:47:22.290Z,19.69
2023-02-06T14:48:22.284Z,19.71
2023-02-06T14:49:22.266Z,19.66
2023-02-06T14:50:22.271Z,19.66
2023-02-06T14:51:22.230Z,19.63
2023-02-06T14:52:22.224Z,19.61
2023-02-06T14:53:22.210Z,19.59
2023-02-06T14:54:22.197Z,19.56
2023-02-06T14:55:22.198Z,19.55
2023-02-06T14:56:22.529Z,19.55
2023-02-06T14:57:22.164Z,19.55
2023-02-06T14:58:22.159Z,19.51
2023-02-06T14:59:22.166Z,19.50
2023-02-06T15:00:22.204Z,19.48
2023-02-06T15:01:22.137Z,19.48
2023-02-06T15:02:22.117Z,19.44
2023-02-06T15:03:22.147Z,19.43
2023-02-06T15:04:22.132Z,19.37
2023-02-06T15:05:22.091Z,19.36
2023-02-06T15:06:22.115Z,19.31
2023-02-06T15:07:22.100Z,19.29
2023-02-06T15:08:22.053Z,19.28
2023-02-06T15:09:22.040Z,19.23
2023-02-06T15:10:22.029Z,19.21
2023-02-06T15:11:22.028Z,19.19
2023-02-06T15:12:22.032Z,19.14
2023-02-06T15:13:22.035Z,19.13
2023-02-06T15:14:21.995Z,19.08
2023-02-06T15:15:21.986Z,19.08
2023-02-06T15:16:22.034Z,19.07
2023-02-06T15:17:21.971Z,19.07
2023-02-06T15:18:21.989Z,19.07
2023-02-06T15:19:21.951Z,19.06
2023-02-06T15:20:21.927Z,19.04
2023-02-06T15:21:21.923Z,19.02
2023-02-06T15:22:21.912Z,19.00
2023-02-06T15:23:21.894Z,18.95
2023-02-06T15:24:21.885Z,18.94
2023-02-06T15:25:21.897Z,18.90
2023-02-06T15:26:21.882Z,18.90
2023-02-06T15:27:21.863Z,18.88
2023-02-06T15:28:21.948Z,18.87
2023-02-06T15:29:21.827Z,18.85
2023-02-06T15:30:21.958Z,18.87
2023-02-06T15:31:21.851Z,18.87
2023-02-06T15:32:21.802Z,18.85
2023-02-06T15:33:21.794Z,18.85
2023-02-06T15:34:21.810Z,18.84
2023-02-06T15:35:21.773Z,18.84
2023-02-06T15:36:21.777Z,18.80
2023-02-06T15:37:21.795Z,18.78
2023-02-06T15:38:21.918Z,18.78
2023-02-06T15:39:21.736Z,18.76
2023-02-06T15:40:21.716Z,18.75
2023-02-06T15:41:21.721Z,18.73
2023-02-06T15:42:21.701Z,18.73
2023-02-06T15:43:21.694Z,18.72
2023-02-06T15:44:21.674Z,18.69
2023-02-06T15:45:21.656Z,18.72
2023-02-06T15:46:21.676Z,18.70
2023-02-06T15:47:21.681Z,18.70
2023-02-06T15:48:21.692Z,18.70
2023-02-06T15:49:21.644Z,18.70
2023-02-06T15:50:21.622Z,18.67
2023-02-06T15:51:21.659Z,18.66
2023-02-06T15:52:21.624Z,18.65
2023-02-06T15:53:21.574Z,18.63
2023-02-06T15:54:21.586Z,18.65
2023-02-06T15:55:21.568Z,18.60
2023-02-06T15:56:21.573Z,18.63
2023-02-06T15:57:21.535Z,18.63
2023-02-06T15:58:21.531Z,18.63
2023-02-06T15:59:21.520Z,18.62
2023-02-06T16:00:21.540Z,18.62
2023-02-06T16:01:21.595Z,18.60
2023-02-06T16:02:21.567Z,18.58
2023-02-06T16:03:21.486Z,18.55
2023-02-06T16:04:21.489Z,18.55
2023-02-06T16:05:21.529Z,18.54
2023-02-06T16:06:21.461Z,18.54
2023-02-06T16:07:21.429Z,18.52
2023-02-06T16:08:21.432Z,18.50
2023-02-06T16:09:21.432Z,18.48
2023-02-06T16:10:21.397Z,18.48
2023-02-06T16:11:21.392Z,18.44
2023-02-06T16:12:21.396Z,18.42
2023-02-06T16:13:21.373Z,18.37
2023-02-06T16:14:21.363Z,18.37
2023-02-06T16:15:21.342Z,18.37
2023-02-06T16:16:21.355Z,18.39
2023-02-06T16:17:21.340Z,18.36
2023-02-06T16:18:21.431Z,18.35
2023-02-06T16:19:21.297Z,18.36
2023-02-06T16:20:21.294Z,18.32
2023-02-06T16:21:21.272Z,18.35
2023-02-06T16:22:21.283Z,18.33
2023-02-06T16:23:21.455Z,18.30
2023-02-06T16:24:21.271Z,18.30
2023-02-06T16:25:21.281Z,18.29
2023-02-06T16:26:21.234Z,18.35
2023-02-06T16:27:21.211Z,18.32
2023-02-06T16:28:21.266Z,18.29
2023-02-06T16:29:21.220Z,18.30
2023-02-06T16:30:21.212Z,18.27
2023-02-06T16:31:21.282Z,18.30
2023-02-06T16:32:21.210Z,18.29
2023-02-06T16:33:21.145Z,18.27
2023-02-06T16:34:21.148Z,18.30
2023-02-06T16:35:21.133Z,18.35
2023-02-06T16:36:21.117Z,18.44
2023-02-06T16:37:21.120Z,18.47
2023-02-06T16:38:21.114Z,18.58
2023-02-06T16:39:23.384Z,18.69
2023-02-06T16:40:21.087Z,18.72
2023-02-06T16:41:21.064Z,18.78
2023-02-06T16:42:21.062Z,18.85
2023-02-06T16:43:21.063Z,18.92
2023-02-06T16:44:21.032Z,19.00
2023-02-06T16:45:21.017Z,19.10
2023-02-06T16:46:21.045Z,19.13
2023-02-06T16:47:21.693Z,19.14
2023-02-06T16:48:21.001Z,19.13
2023-02-06T16:49:20.966Z,19.11
2023-02-06T16:50:20.981Z,19.11
2023-02-06T16:51:21.017Z,19.07
2023-02-06T16:52:20.972Z,19.00
2023-02-06T16:53:20.948Z,18.98
2023-02-06T16:54:20.931Z,18.90
2023-02-06T16:55:22.918Z,18.85
2023-02-06T16:56:21.017Z,18.81
2023-02-06T16:57:20.959Z,18.78
2023-02-06T16:58:20.962Z,18.73
2023-02-06T16:59:20.930Z,18.70
2023-02-06T17:00:20.925Z,18.65
2023-02-06T17:01:20.975Z,18.62
2023-02-06T17:02:20.935Z,18.54
2023-02-06T17:03:20.880Z,18.52
2023-02-06T17:04:20.874Z,18.48
2023-02-06T17:05:20.863Z,18.41
2023-02-06T17:06:20.844Z,18.36
2023-02-06T17:07:20.832Z,18.32
2023-02-06T17:08:20.820Z,18.30
2023-02-06T17:09:20.831Z,18.27
2023-02-06T17:10:20.809Z,18.27
2023-02-06T17:11:20.802Z,18.25
2023-02-06T17:12:20.784Z,18.25
2023-02-06T17:13:20.826Z,18.23
2023-02-06T17:14:20.770Z,18.23
2023-02-06T17:15:20.771Z,18.21
2023-02-06T17:16:20.742Z,18.18
2023-02-06T17:17:20.755Z,18.15
2023-02-06T17:18:20.728Z,18.12
2023-02-06T17:19:21.038Z,18.12
2023-02-06T17:20:20.708Z,18.11
2023-02-06T17:21:20.692Z,18.08
2023-02-06T17:22:20.708Z,18.08
2023-02-06T17:23:20.678Z,18.07
2023-02-06T17:24:20.678Z,18.07
2023-02-06T17:25:21.545Z,18.07
2023-02-06T17:26:20.635Z,18.07
2023-02-06T17:27:20.641Z,18.07
2023-02-06T17:28:20.727Z,18.02
2023-02-06T17:29:20.603Z,18.03
2023-02-06T17:30:20.638Z,18.05
2023-02-06T17:31:20.673Z,18.05
2023-02-06T17:32:20.567Z,18.03
2023-02-06T17:33:20.559Z,18.03
2023-02-06T17:34:20.736Z,18.03
2023-02-06T17:35:20.561Z,18.00
2023-02-06T17:36:20.523Z,18.00
2023-02-06T17:37:20.679Z,18.00
2023-02-06T17:38:20.514Z,17.99
2023-02-06T17:39:20.501Z,18.00
2023-02-06T17:40:20.519Z,17.95
2023-02-06T17:41:20.496Z,17.97
2023-02-06T17:42:20.472Z,17.93
2023-02-06T17:43:20.464Z,17.95
2023-02-06T17:44:20.445Z,17.92
2023-02-06T17:45:20.453Z,17.90
2023-02-06T17:46:20.501Z,17.92
2023-02-06T17:47:20.421Z,17.89
2023-02-06T17:48:20.426Z,17.89
2023-02-06T17:49:20.403Z,17.87
2023-02-06T17:50:20.390Z,17.86
2023-02-06T17:51:20.392Z,17.82
2023-02-06T17:52:20.363Z,17.81
2023-02-06T17:53:20.359Z,17.79
2023-02-06T17:54:20.340Z,17.77
2023-02-06T17:55:20.342Z,17.77
2023-02-06T17:56:20.321Z,17.72
2023-02-06T17:57:20.315Z,17.74
2023-02-06T17:58:20.292Z,17.71
2023-02-06T17:59:20.289Z,17.71
2023-02-06T18:00:20.291Z,17.71
2023-02-06T18:01:20.309Z,17.70
2023-02-06T18:02:20.288Z,17.68
2023-02-06T18:03:20.273Z,17.70
2023-02-06T18:04:20.235Z,17.68
2023-02-06T18:05:20.244Z,17.70
2023-02-06T18:06:20.234Z,17.70
2023-02-06T18:07:20.210Z,17.68
2023-02-06T18:08:20.194Z,17.70
2023-02-06T18:09:20.198Z,17.64
2023-02-06T18:10:20.190Z,17.66
2023-02-06T18:11:20.157Z,17.68
2023-02-06T18:12:20.145Z,17.63
2023-02-06T18:13:20.140Z,17.59
2023-02-06T18:14:20.141Z,17.59
2023-02-06T18:15:20.127Z,17.56
2023-02-06T18:16:20.173Z,17.58
2023-02-06T18:17:20.096Z,17.58
2023-02-06T18:18:20.089Z,17.55
2023-02-06T18:19:20.082Z,17.58
2023-02-06T18:20:20.071Z,17.56
2023-02-06T18:21:20.076Z,17.58
2023-02-06T18:22:20.046Z,17.56
2023-02-06T18:23:20.052Z,17.54
2023-02-06T18:24:20.016Z,17.54
2023-02-06T18:25:20.040Z,17.51
2023-02-06T18:26:20.011Z,17.52
2023-02-06T18:27:19.989Z,17.51
2023-02-06T18:28:20.162Z,17.49
2023-02-06T18:29:19.973Z,17.54
2023-02-06T18:30:19.979Z,17.51
2023-02-06T18:31:19.975Z,17.49
2023-02-06T18:32:19.945Z,17.46
2023-02-06T18:33:19.934Z,17.44
2023-02-06T18:34:20.590Z,17.44
2023-02-06T18:35:19.926Z,17.43
2023-02-06T18:36:19.890Z,17.40
2023-02-06T18:37:19.899Z,17.43
2023-02-06T18:38:19.876Z,17.40
2023-02-06T18:39:19.855Z,17.37
2023-02-06T18:40:19.845Z,17.37
2023-02-06T18:41:19.849Z,17.38
2023-02-06T18:42:19.904Z,17.37
2023-02-06T18:43:19.814Z,17.38
2023-02-06T18:44:19.825Z,17.38
2023-02-06T18:45:19.861Z,17.46
2023-02-06T18:46:19.814Z,17.68
2023-02-06T18:47:19.793Z,18.03
2023-02-06T18:48:19.768Z,18.33
2023-02-06T18:49:19.774Z,18.66
2023-02-06T18:50:19.747Z,18.92
2023-02-06T18:51:19.738Z,19.21
2023-02-06T18:52:19.724Z,19.33
2023-02-06T18:53:19.705Z,19.47
2023-02-06T18:54:19.700Z,19.46
2023-02-06T18:55:19.702Z,19.59
2023-02-06T18:56:19.671Z,19.76
2023-02-06T18:57:19.697Z,19.78
2023-02-06T18:58:19.654Z,19.69
2023-02-06T18:59:19.649Z,19.63
2023-02-06T19:00:19.639Z,19.51
2023-02-06T19:01:19.620Z,19.47
2023-02-06T19:02:19.673Z,19.36
2023-02-06T19:03:19.599Z,19.31
2023-02-06T19:04:19.609Z,19.26
2023-02-06T19:05:19.586Z,19.14
2023-02-06T19:06:19.603Z,19.02
2023-02-06T19:07:19.568Z,18.92
2023-02-06T19:08:19.561Z,18.80
2023-02-06T19:09:19.545Z,18.70
2023-02-06T19:10:19.532Z,18.58
2023-02-06T19:11:19.525Z,18.45
2023-02-06T19:12:19.522Z,18.30
2023-02-06T19:13:19.543Z,18.20
2023-02-06T19:14:19.491Z,18.14
2023-02-06T19:15:19.496Z,18.02
2023-02-06T19:16:19.501Z,17.97
2023-02-06T19:17:19.470Z,17.92
2023-02-06T19:18:28.942Z,17.89
2023-02-06T19:19:19.483Z,17.87
2023-02-06T19:20:19.446Z,17.82
2023-02-06T19:21:19.464Z,17.78
2023-02-06T19:22:19.420Z,17.74
2023-02-06T19:23:19.410Z,17.74
2023-02-06T19:24:19.381Z,17.72
2023-02-06T19:25:19.395Z,17.71
2023-02-06T19:26:19.367Z,17.70
2023-02-06T19:27:19.364Z,17.70
2023-02-06T19:28:19.434Z,17.70
2023-02-06T19:29:30.140Z,17.72
2023-02-06T19:30:19.320Z,17.68
2023-02-06T19:31:19.394Z,17.64
2023-02-06T19:32:19.313Z,17.63
2023-02-06T19:33:19.291Z,17.62
2023-02-06T19:34:19.280Z,17.63
2023-02-06T19:35:19.338Z,17.56
2023-02-06T19:36:19.340Z,17.56
2023-02-06T19:37:19.244Z,17.55
2023-02-06T19:38:19.233Z,17.52
2023-02-06T19:39:19.231Z,17.54
2023-02-06T19:40:19.221Z,17.51
2023-02-06T19:41:19.202Z,17.49
2023-02-06T19:42:19.218Z,17.48
2023-02-06T19:43:19.195Z,17.48
2023-02-06T19:44:19.171Z,17.49
2023-02-06T19:45:19.160Z,17.49
2023-02-06T19:46:19.145Z,17.48
2023-02-06T19:47:19.140Z,17.48
2023-02-06T19:48:19.138Z,17.44
2023-02-06T19:49:19.114Z,17.46
2023-02-06T19:50:19.119Z,17.44
2023-02-06T19:51:19.100Z,17.46
2023-02-06T19:52:19.132Z,17.44
2023-02-06T19:53:19.083Z,17.43
2023-02-06T19:54:19.059Z,17.40
2023-02-06T19:55:19.066Z,17.38
2023-02-06T19:56:19.043Z,17.37
2023-02-06T19:57:19.033Z,17.37
2023-02-06T19:58:19.010Z,17.34
2023-02-06T19:59:19.019Z,17.30
2023-02-06T20:00:18.997Z,17.33
2023-02-06T20:01:19.048Z,17.30
2023-02-06T20:02:18.982Z,17.28
2023-02-06T20:03:19.009Z,17.22
2023-02-06T20:04:18.972Z,17.25
2023-02-06T20:05:18.942Z,17.19
2023-02-06T20:06:18.936Z,17.18
2023-02-06T20:07:18.937Z,17.16
2023-02-06T20:08:18.905Z,17.18
2023-02-06T20:09:18.912Z,17.18
2023-02-06T20:10:18.883Z,17.15
2023-02-06T20:11:18.911Z,17.12
2023-02-06T20:12:18.870Z,17.14
2023-02-06T20:13:18.865Z,17.12
2023-02-06T20:14:18.857Z,17.11
2023-02-06T20:15:18.844Z,17.07
2023-02-06T20:16:18.885Z,17.03
2023-02-06T20:17:18.818Z,17.03
2023-02-06T20:18:18.821Z,17.03
2023-02-06T20:19:18.802Z,17.04
2023-02-06T20:20:18.798Z,17.03
2023-02-06T20:21:18.784Z,17.00
2023-02-06T20:22:18.765Z,17.00
2023-02-06T20:23:18.778Z,17.00
2023-02-06T20:24:18.750Z,17.00
2023-02-06T20:25:18.749Z,16.96
2023-02-06T20:26:18.735Z,16.96
2023-02-06T20:27:18.714Z,16.97
2023-02-06T20:28:18.738Z,16.98
2023-02-06T20:29:27.613Z,16.96
2023-02-06T20:30:18.683Z,16.96
2023-02-06T20:31:18.804Z,16.96
2023-02-06T20:32:18.658Z,16.94
2023-02-06T20:33:18.648Z,16.94
2023-02-06T20:34:18.645Z,16.94
2023-02-06T20:35:18.634Z,16.93
2023-02-06T20:36:18.625Z,16.89
2023-02-06T20:37:18.613Z,16.89
2023-02-06T20:38:18.613Z,16.86
2023-02-06T20:39:18.586Z,16.89
2023-02-06T20:40:18.577Z,16.89
2023-02-06T20:41:18.568Z,16.86
2023-02-06T20:42:18.605Z,16.88
2023-02-06T20:43:18.551Z,16.83
2023-02-06T20:44:18.558Z,16.82
2023-02-06T20:45:18.523Z,16.81
2023-02-06T20:46:18.583Z,16.85
2023-02-06T20:47:18.517Z,16.83
2023-02-06T20:48:18.496Z,16.88
2023-02-06T20:49:18.484Z,16.88
2023-02-06T20:50:18.465Z,16.93
2023-02-06T20:51:18.466Z,16.94
2023-02-06T20:52:18.443Z,16.96
2023-02-06T20:53:18.443Z,16.97
2023-02-06T20:54:18.420Z,17.01
2023-02-06T20:55:18.415Z,17.04
2023-02-06T20:56:18.395Z,17.04
2023-02-06T20:57:18.406Z,17.06
2023-02-06T20:58:18.379Z,17.04
2023-02-06T20:59:18.388Z,17.04
2023-02-06T21:00:18.376Z,16.98
2023-02-06T21:01:18.359Z,16.97
2023-02-06T21:02:18.350Z,16.91
2023-02-06T21:03:18.336Z,16.83
2023-02-06T21:04:18.336Z,16.81
2023-02-06T21:05:18.314Z,16.79
2023-02-06T21:06:18.300Z,16.76
2023-02-06T21:07:18.278Z,16.73
2023-02-06T21:08:18.296Z,16.75
2023-02-06T21:09:18.255Z,16.73
2023-02-06T21:10:18.269Z,16.73
2023-02-06T21:11:18.254Z,16.75
2023-02-06T21:12:18.238Z,16.71
2023-02-06T21:13:18.336Z,16.68
2023-02-06T21:14:18.218Z,16.67
2023-02-06T21:15:18.208Z,16.67
2023-02-06T21:16:18.194Z,16.67
2023-02-06T21:17:18.205Z,16.66
2023-02-06T21:18:18.172Z,16.66
2023-02-06T21:19:18.180Z,16.67
2023-02-06T21:20:18.164Z,16.67
2023-02-06T21:21:18.172Z,16.70
2023-02-06T21:22:18.149Z,16.82
2023-02-06T21:23:18.125Z,16.83
2023-02-06T21:24:18.144Z,16.89
2023-02-06T21:25:18.093Z,16.97
2023-02-06T21:26:18.095Z,17.03
2023-02-06T21:27:18.073Z,17.06
2023-02-06T21:28:18.078Z,17.08
2023-02-06T21:29:18.051Z,17.15
2023-02-06T21:30:18.084Z,17.18
2023-02-06T21:31:18.151Z,17.21
2023-02-06T21:32:18.065Z,17.19
2023-02-06T21:33:18.026Z,17.23
2023-02-06T21:34:18.014Z,17.25
2023-02-06T21:35:18.009Z,17.25
2023-02-06T21:36:17.993Z,17.21
2023-02-06T21:37:17.982Z,17.23
2023-02-06T21:38:17.958Z,17.19
2023-02-06T21:39:17.946Z,17.14
2023-02-06T21:40:17.951Z,17.11
2023-02-06T21:41:17.924Z,17.07
2023-02-06T21:42:17.923Z,17.07
2023-02-06T21:43:17.902Z,17.03
2023-02-06T21:44:17.893Z,17.00
2023-02-06T21:45:17.893Z,16.96
2023-02-06T21:46:17.893Z,16.94
2023-02-06T21:47:17.915Z,16.89
2023-02-06T21:48:17.856Z,16.86
2023-02-06T21:49:17.833Z,16.83
2023-02-06T21:50:17.836Z,16.82
2023-02-06T21:51:17.833Z,16.81
2023-02-06T21:52:17.809Z,16.81
2023-02-06T21:53:17.819Z,16.83
2023-02-06T21:54:17.866Z,16.82
2023-02-06T21:55:17.776Z,16.79
2023-02-06T21:56:17.770Z,16.79
2023-02-06T21:57:17.762Z,16.78
2023-02-06T21:58:17.753Z,16.78
2023-02-06T21:59:17.741Z,16.73
2023-02-06T22:00:17.733Z,16.71
2023-02-06T22:01:17.780Z,16.71
2023-02-06T22:02:17.734Z,16.70
2023-02-06T22:03:17.740Z,16.68
2023-02-06T22:04:17.685Z,16.67
2023-02-06T22:05:17.667Z,16.68
2023-02-06T22:06:17.686Z,16.67
2023-02-06T22:07:17.664Z,16.64
2023-02-06T22:08:17.659Z,16.61
2023-02-06T22:09:17.634Z,16.63
2023-02-06T22:10:17.621Z,16.61
2023-02-06T22:11:17.601Z,16.63
2023-02-06T22:12:17.614Z,16.60
2023-02-06T22:13:17.585Z,16.58
2023-02-06T22:14:17.585Z,16.56
2023-02-06T22:15:17.562Z,16.58
2023-02-06T22:16:17.580Z,16.56
2023-02-06T22:17:17.590Z,16.53
2023-02-06T22:18:17.533Z,16.57
2023-02-06T22:19:17.541Z,16.50
2023-02-06T22:20:17.541Z,16.50
2023-02-06T22:21:17.501Z,16.48
2023-02-06T22:22:17.490Z,16.48
2023-02-06T22:23:17.490Z,16.46
2023-02-06T22:24:17.486Z,16.45
2023-02-06T22:25:17.456Z,16.46
2023-02-06T22:26:17.451Z,16.46
2023-02-06T22:27:17.433Z,16.42
2023-02-06T22:28:17.465Z,16.41
2023-02-06T22:29:17.439Z,16.42
2023-02-06T22:30:17.421Z,16.42
2023-02-06T22:31:17.431Z,16.43
2023-02-06T22:32:17.389Z,16.39
2023-02-06T22:33:17.378Z,16.41
2023-02-06T22:34:17.400Z,16.39
2023-02-06T22:35:17.356Z,16.38
2023-02-06T22:36:17.368Z,16.35
2023-02-06T22:37:17.323Z,16.35
2023-02-06T22:38:17.319Z,16.34
2023-02-06T22:39:17.303Z,16.34
2023-02-06T22:40:17.297Z,16.34
2023-02-06T22:41:17.474Z,16.33
2023-02-06T22:42:17.278Z,16.39
2023-02-06T22:43:17.273Z,16.38
2023-02-06T22:44:17.288Z,16.34
2023-02-06T22:45:17.259Z,16.33
2023-02-06T22:46:17.276Z,16.33
2023-02-06T22:47:17.242Z,16.30
2023-02-06T22:48:17.220Z,16.30
2023-02-06T22:49:17.195Z,16.28
2023-02-06T22:50:17.189Z,16.28
2023-02-06T22:51:17.178Z,16.28
2023-02-06T22:52:17.189Z,16.27
2023-02-06T22:53:17.154Z,16.28
2023-02-06T22:54:17.149Z,16.23
2023-02-06T22:55:17.131Z,16.23
2023-02-06T22:56:17.153Z,16.15
2023-02-06T22:57:17.112Z,16.14
2023-02-06T22:58:17.106Z,16.11
2023-02-06T22:59:17.086Z,16.12
2023-02-06T23:00:17.103Z,16.12
2023-02-06T23:01:17.080Z,16.12
2023-02-06T23:02:17.164Z,16.12
2023-02-06T23:03:17.047Z,16.09
2023-02-06T23:04:17.047Z,16.11
2023-02-06T23:05:17.029Z,16.11
2023-02-06T23:06:17.037Z,16.09
2023-02-06T23:07:17.006Z,16.11
2023-02-06T23:08:17.001Z,16.12
2023-02-06T23:09:17.047Z,16.14
2023-02-06T23:10:16.981Z,16.20
2023-02-06T23:11:16.968Z,16.15
2023-02-06T23:12:16.957Z,16.12
2023-02-06T23:13:16.952Z,16.14
2023-02-06T23:14:16.946Z,16.07
2023-02-06T23:15:16.926Z,16.08
2023-02-06T23:16:16.920Z,16.09
2023-02-06T23:17:16.909Z,16.11
2023-02-06T23:18:17.120Z,16.11
2023-02-06T23:19:16.876Z,16.12
2023-02-06T23:20:16.912Z,16.11
2023-02-06T23:21:16.855Z,16.11
2023-02-06T23:22:16.868Z,16.11
2023-02-06T23:23:16.846Z,16.09
2023-02-06T23:24:16.849Z,16.09
2023-02-06T23:25:16.820Z,16.11
2023-02-06T23:26:16.810Z,16.15
2023-02-06T23:27:16.811Z,16.15
2023-02-06T23:28:16.847Z,16.20
2023-02-06T23:29:16.777Z,16.27
2023-02-06T23:30:16.774Z,16.30
2023-02-06T23:31:16.767Z,16.31
2023-02-06T23:32:16.745Z,16.38
2023-02-06T23:33:16.742Z,16.38
2023-02-06T23:34:16.742Z,16.39
2023-02-06T23:35:16.717Z,16.41
2023-02-06T23:36:16.916Z,16.41
2023-02-06T23:37:16.699Z,16.43
2023-02-06T23:38:16.690Z,16.49
2023-02-06T23:39:16.665Z,16.49
2023-02-06T23:40:16.659Z,16.50
2023-02-06T23:41:16.642Z,16.53
2023-02-06T23:42:16.636Z,16.50
2023-02-06T23:43:16.637Z,16.49
2023-02-06T23:44:16.613Z,16.50
2023-02-06T23:45:16.625Z,16.46
2023-02-06T23:46:16.631Z,16.48
2023-02-06T23:47:16.584Z,16.43
2023-02-06T23:48:16.585Z,16.41
2023-02-06T23:49:16.559Z,16.38
2023-02-06T23:50:16.551Z,16.39
2023-02-06T23:51:16.556Z,16.39
2023-02-06T23:52:16.532Z,16.35
2023-02-06T23:53:16.522Z,16.38
2023-02-06T23:54:16.519Z,16.39
2023-02-06T23:55:16.487Z,16.39
2023-02-06T23:56:16.496Z,16.34
2023-02-06T23:57:16.480Z,16.34
2023-02-06T23:58:16.471Z,16.34
2023-02-06T23:59:16.459Z,16.34
